createdAt,value
2022-11-14T00:07:37.268Z,97.04
2022-11-14T00:17:38.575Z,97.00
2022-11-14T00:27:37.626Z,97.14
2022-11-14T00:37:38.881Z,97.52
2022-11-14T00:47:38.110Z,97.56
2022-11-14T00:57:39.993Z,98.12
2022-11-14T01:07:38.427Z,98.43
2022-11-14T01:17:40.036Z,98.60
2022-11-14T01:27:38.916Z,98.49
2022-11-14T01:37:41.127Z,98.39
2022-11-14T01:47:39.176Z,97.93
2022-11-14T01:57:39.549Z,97.93
2022-11-14T02:07:39.635Z,97.83
2022-11-14T02:17:39.929Z,97.36
2022-11-14T02:27:39.971Z,97.57
2022-11-14T02:37:40.403Z,97.72
2022-11-14T02:47:40.642Z,97.97
2022-11-14T02:57:40.551Z,98.55
2022-11-14T03:07:40.773Z,98.19
2022-11-14T03:17:41.145Z,97.93
2022-11-14T03:27:41.327Z,97.88
2022-11-14T03:37:41.704Z,97.57
2022-11-14T03:47:41.653Z,97.67
2022-11-14T03:57:41.881Z,97.47
2022-11-14T04:07:41.906Z,97.67
2022-11-14T04:17:43.265Z,97.88
2022-11-14T04:27:42.295Z,97.99
2022-11-14T04:37:42.605Z,97.93
2022-11-14T04:47:42.642Z,97.01
2022-11-14T04:57:42.976Z,95.99
2022-11-14T05:07:43.006Z,93.68
2022-11-14T05:17:43.355Z,95.94
2022-11-14T05:27:43.484Z,97.08
2022-11-14T05:37:43.722Z,84.09
2022-11-14T05:47:43.796Z,82.71
2022-11-14T05:57:43.995Z,81.04
2022-11-14T06:07:44.074Z,82.47
2022-11-14T06:17:44.351Z,82.27
2022-11-14T06:27:44.391Z,87.05
2022-11-14T06:37:44.644Z,95.86
2022-11-14T06:47:44.878Z,78.20
2022-11-14T06:57:45.211Z,77.11
2022-11-14T07:07:45.237Z,74.83
2022-11-14T07:17:45.575Z,75.41
2022-11-14T07:27:45.622Z,73.74
2022-11-14T07:37:45.943Z,72.82
2022-11-14T07:47:45.962Z,71.87
2022-11-14T07:57:49.158Z,74.18
2022-11-14T08:07:46.321Z,77.42
2022-11-14T08:17:46.619Z,74.04
2022-11-14T08:27:46.648Z,70.24
2022-11-14T08:37:46.976Z,76.43
2022-11-14T08:47:46.996Z,78.57
2022-11-14T08:57:49.569Z,76.66
2022-11-14T09:07:47.446Z,73.40
2022-11-14T09:17:47.694Z,77.00
2022-11-14T09:27:47.915Z,76.76
2022-11-14T09:37:48.179Z,79.08
2022-11-14T09:47:48.402Z,78.84
2022-11-14T09:57:48.636Z,76.15
2022-11-14T10:07:48.860Z,78.19
2022-11-14T10:17:49.209Z,84.11
2022-11-14T10:27:55.328Z,90.62
2022-11-14T10:37:50.496Z,90.79
2022-11-14T10:47:50.317Z,90.69
2022-11-14T10:57:49.967Z,89.45
2022-11-14T11:07:50.245Z,88.96
2022-11-14T11:17:50.261Z,86.94
2022-11-14T11:27:50.520Z,86.24
2022-11-14T11:37:50.740Z,83.59
2022-11-14T11:47:50.979Z,83.73
2022-11-14T11:57:51.268Z,84.85
2022-11-14T12:07:51.355Z,85.26
2022-11-14T12:17:51.377Z,85.32
2022-11-14T12:27:53.940Z,87.02
2022-11-14T12:37:55.635Z,87.43
2022-11-14T12:47:52.062Z,85.65
2022-11-14T12:57:52.380Z,85.00
2022-11-14T13:07:52.411Z,84.75
2022-11-14T13:17:52.749Z,80.63
2022-11-14T13:28:07.332Z,74.79
2022-11-14T13:37:56.359Z,57.62
2022-11-14T13:47:53.307Z,53.55
2022-11-14T13:57:53.348Z,48.18
2022-11-14T14:07:53.466Z,50.74
2022-11-14T14:17:53.510Z,48.33
2022-11-14T14:27:53.857Z,48.74
2022-11-14T14:38:02.927Z,52.53
2022-11-14T14:47:53.949Z,53.67
2022-11-14T14:57:54.310Z,54.92
2022-11-14T15:07:54.338Z,60.10
2022-11-14T15:17:54.606Z,58.02
2022-11-14T15:27:54.612Z,58.12
2022-11-14T15:37:54.936Z,57.03
2022-11-14T15:47:54.977Z,53.96
2022-11-14T15:58:20.966Z,53.55
2022-11-14T22:09:08.161Z,62.95
2022-11-14T22:19:08.369Z,58.58
2022-11-14T22:29:08.625Z,57.97
2022-11-14T22:39:08.855Z,58.58
2022-11-14T22:49:09.119Z,60.75
2022-11-14T22:59:09.362Z,58.70
2022-11-14T23:09:09.756Z,59.63
2022-11-14T23:19:11.614Z,60.30
2022-11-14T23:29:12.177Z,60.17
2022-11-14T23:39:10.292Z,59.78
2022-11-14T23:49:10.488Z,60.50
2022-11-14T23:59:10.656Z,61.66
